Great River, New York
Current Conditions -  °F | °C
As of 10:56 AM on Wednesday 22 Oct 2014 (Local Time) from KISP Reporting Station
Overcast Overcast  
Wind Chill: 56°   Ceiling: 1300
Heat Index: 56°   Visibility: 10mi
Dew Point: 52°   Wind: 15mph
Humidity: 87%   Direction: 30°NNE
Pressure: 29.89"   Gusts: 21mph
Location:  40.72°N, 73.16°W
Report Text: KISP 221456Z 03013G18KT 10SM BKN013 OVC020 13/11 A2989 RMK AO2 RAE50 SLP121 P0002 60002 T01330111 50002
Loading
Personal Weather Stations






























Interactive Weather Map
Tropical Storm Tracking
New forecast layout! Learn more

10-Day Weather Forecast

Advertisements
Track Severe Weather on mobile